Medina de Rioseco, Spain
Current Conditions -  °F | °C
As of 8:00 AM on Saturday 20 Dec 2014 (Local Time) from LEVD Reporting Station
Moderate Fog Moderate Fog  
Wind Chill: 34°   Ceiling: 100
Heat Index: 34°   Visibility: 0.06mi
Dew Point: 34°   Wind: 0mph
Humidity: 100%   Direction: NA
Pressure: 30.53"   Gusts: NA
Location:  41.88°N, 5.04°W
Report Text: LEVD 200700Z 00000KT 0100 R23/0650N FG VV001 01/01 Q1034
Loading
Personal Weather Stations






























Interactive Weather Map New forecast layout! Learn more

10-Day Weather Forecast

Advertisements
Track Severe Weather on mobile